Time;durP1;ratioP1;P1;durP2;ratioP2;P2;SDS_P1;SDS_P2;PMS_P1;PMS_P2;Temp;Humidity;BMP_temperature;BMP_pressure;BME280_temperature;BME280_humidity;BME280_pressure;Samples;Min_cycle;Max_cycle;Signal;HPM_P1;HPM_P2
2023/09/19 00:03:49;;;;;;;16.65;2.65;;;;;14.50;100439.00;;;;10048618;29;20209;-78
2023/09/19 00:08:53;;;;;;;13.52;3.08;;;;;14.50;100438.00;;;;10024966;29;20303;-79
2023/09/19 00:13:55;;;;;;;13.75;2.90;;;;;14.50;100456.00;;;;10042432;29;20700;-79
2023/09/19 00:18:58;;;;;;;9.98;2.65;;;;;14.50;100454.00;;;;10032791;29;20231;-79
2023/09/19 00:24:00;;;;;;;12.13;2.55;;;;;14.50;100464.00;;;;10040973;29;20228;-80
2023/09/19 00:29:03;;;;;;;7.82;2.30;;;;;14.50;100465.00;;;;10010360;29;20278;-79
2023/09/19 00:34:05;;;;;;;12.88;2.80;;;;;14.40;100463.00;;;;10043282;29;20252;-80
2023/09/19 00:39:08;;;;;;;14.43;2.90;;;;;14.40;100469.00;;;;10043664;29;20241;-84
2023/09/19 00:44:10;;;;;;;9.95;2.45;;;;;14.40;100474.00;;;;10067824;29;21799;-85
2023/09/19 00:49:14;;;;;;;16.00;3.58;;;;;14.30;100476.00;;;;10066274;29;20208;-84
2023/09/19 00:54:18;;;;;;;11.73;3.45;;;;;14.30;100474.00;;;;10023307;29;20319;-85
2023/09/19 00:59:22;;;;;;;11.82;3.00;;;;;14.30;100480.00;;;;10022715;29;20213;-85
2023/09/19 01:04:25;;;;;;;11.77;2.70;;;;;14.30;100488.00;;;;10039929;29;20226;-85
2023/09/19 01:09:27;;;;;;;12.75;2.47;;;;;14.20;100490.00;;;;10031419;29;20220;-87
2023/09/19 01:14:44;;;;;;;11.95;2.72;;;;;14.20;100483.00;;;;10060355;29;20239;-83
2023/09/19 01:20:06;;;;;;;14.77;2.92;;;;;14.20;100483.00;;;;10046268;29;20243;-85
2023/09/19 01:25:39;;;;;;;14.25;2.47;;;;;14.20;100493.00;;;;10050308;29;20231;-85
2023/09/19 01:30:44;;;;;;;12.35;2.22;;;;;14.20;100489.00;;;;10039354;29;20209;-85
2023/09/19 01:35:47;;;;;;;12.65;2.55;;;;;14.20;100499.00;;;;10046197;29;20704;-86
2023/09/19 01:41:04;;;;;;;10.88;2.72;;;;;14.10;100502.00;;;;10009137;29;20221;-85
2023/09/19 01:46:21;;;;;;;15.60;2.67;;;;;14.10;100494.00;;;;10026005;29;20265;-86
2023/09/19 01:51:46;;;;;;;9.05;2.33;;;;;14.00;100496.00;;;;10050366;29;20223;-79
2023/09/19 01:56:59;;;;;;;13.85;2.55;;;;;14.00;100499.00;;;;9977831;29;20251;-78
2023/09/19 02:02:02;;;;;;;13.02;2.72;;;;;14.00;100510.00;;;;10024226;29;20675;-79
2023/09/19 02:07:08;;;;;;;17.58;3.38;;;;;14.00;100496.00;;;;10046820;29;20223;-79
2023/09/19 02:12:10;;;;;;;14.95;2.95;;;;;14.10;100503.00;;;;10011580;29;20580;-79
2023/09/19 02:17:12;;;;;;;12.43;2.60;;;;;14.10;100497.00;;;;10035802;29;20305;-78
2023/09/19 02:22:16;;;;;;;9.88;2.80;;;;;14.20;100495.00;;;;10022211;29;20277;-79
2023/09/19 02:27:19;;;;;;;14.18;2.63;;;;;14.30;100499.00;;;;10026648;29;20878;-79
2023/09/19 02:32:21;;;;;;;16.00;2.95;;;;;14.30;100504.00;;;;10037762;29;20811;-80
2023/09/19 02:37:23;;;;;;;9.88;2.63;;;;;14.40;100508.00;;;;10017246;29;20718;-78
2023/09/19 02:42:25;;;;;;;13.02;2.92;;;;;14.50;100510.00;;;;10021560;29;20227;-78
2023/09/19 02:47:28;;;;;;;12.48;2.30;;;;;14.60;100519.00;;;;10023489;29;20220;-79
2023/09/19 02:52:30;;;;;;;11.50;2.67;;;;;14.60;100523.00;;;;10041128;29;20990;-79
2023/09/19 02:57:33;;;;;;;11.25;2.60;;;;;14.60;100498.00;;;;10024256;29;20289;-79
2023/09/19 03:02:37;;;;;;;12.77;2.80;;;;;14.60;100490.00;;;;10006282;29;20862;-85
2023/09/19 03:07:39;;;;;;;14.85;2.45;;;;;14.60;100506.00;;;;10023233;29;20238;-82
2023/09/19 03:12:42;;;;;;;12.18;2.75;;;;;14.50;100521.00;;;;10036231;29;20308;-84
2023/09/19 03:17:45;;;;;;;11.55;2.80;;;;;14.40;100521.00;;;;10050756;29;20323;-82
2023/09/19 03:22:50;;;;;;;10.68;2.67;;;;;14.30;100525.00;;;;10013657;29;20216;-82
2023/09/19 03:27:52;;;;;;;13.15;2.60;;;;;14.30;100522.00;;;;10030912;29;20300;-83
2023/09/19 03:32:57;;;;;;;11.98;2.50;;;;;14.40;100510.00;;;;10036729;29;20319;-82
2023/09/19 03:37:59;;;;;;;9.98;2.72;;;;;14.50;100512.00;;;;10053472;29;20227;-83
2023/09/19 03:43:02;;;;;;;11.13;2.35;;;;;14.50;100519.00;;;;9996764;29;20213;-84
2023/09/19 03:48:10;;;;;;;13.50;2.53;;;;;14.50;100518.00;;;;10015294;29;20209;-84
2023/09/19 03:53:13;;;;;;;11.48;2.42;;;;;14.40;100527.00;;;;9991010;29;20252;-84
2023/09/19 03:58:15;;;;;;;13.85;2.78;;;;;14.30;100504.00;;;;10034959;29;20236;-84
2023/09/19 04:03:20;;;;;;;15.93;2.67;;;;;14.20;100510.00;;;;10013090;29;20219;-83
2023/09/19 04:08:23;;;;;;;18.63;4.13;;;;;14.10;100520.00;;;;10030476;29;20221;-78
2023/09/19 04:13:26;;;;;;;13.57;2.50;;;;;14.10;100522.00;;;;10048547;29;20808;-78
2023/09/19 04:18:31;;;;;;;9.00;2.30;;;;;14.00;100517.00;;;;10040808;29;20237;-79
2023/09/19 04:23:33;;;;;;;18.50;3.15;;;;;14.00;100525.00;;;;10044659;29;20217;-78
2023/09/19 04:28:38;;;;;;;14.48;2.72;;;;;14.00;100516.00;;;;10036410;29;20228;-78
2023/09/19 04:33:40;;;;;;;10.07;2.47;;;;;13.90;100526.00;;;;10023346;29;20770;-77
2023/09/19 04:38:43;;;;;;;11.32;2.67;;;;;13.90;100521.00;;;;10022720;29;20217;-79
2023/09/19 04:43:49;;;;;;;12.02;2.53;;;;;13.90;100537.00;;;;9999567;29;20205;-78
2023/09/19 04:48:51;;;;;;;12.13;3.17;;;;;13.90;100540.00;;;;10041046;29;20308;-78
2023/09/19 04:53:53;;;;;;;8.90;2.65;;;;;13.80;100543.00;;;;10046940;29;20324;-78
2023/09/19 04:58:55;;;;;;;7.95;2.53;;;;;13.80;100544.00;;;;10023408;29;20227;-79
2023/09/19 05:03:57;;;;;;;10.57;2.58;;;;;13.70;100547.00;;;;10036550;29;20944;-79
2023/09/19 05:09:00;;;;;;;12.30;2.80;;;;;13.70;100558.00;;;;10014855;29;20220;-78
2023/09/19 05:14:03;;;;;;;9.48;1.92;;;;;13.80;100562.00;;;;10000792;29;20219;-81
2023/09/19 05:19:06;;;;;;;14.57;2.40;;;;;13.80;100560.00;;;;10020167;29;20233;-83
2023/09/19 05:24:08;;;;;;;10.85;2.85;;;;;13.70;100569.00;;;;10047566;29;20304;-87
2023/09/19 05:29:12;;;;;;;14.15;2.78;;;;;13.70;100577.00;;;;10054633;29;20646;-86
2023/09/19 05:34:14;;;;;;;15.68;2.80;;;;;13.80;100570.00;;;;10036846;29;20324;-87
2023/09/19 05:39:16;;;;;;;12.55;3.47;;;;;13.90;100571.00;;;;10023724;29;20209;-86
2023/09/19 05:44:19;;;;;;;11.00;2.53;;;;;13.90;100558.00;;;;10036247;29;20212;-86
2023/09/19 05:49:21;;;;;;;15.10;3.13;;;;;14.00;100558.00;;;;10008799;29;20213;-86
2023/09/19 05:54:23;;;;;;;8.73;2.50;;;;;14.10;100571.00;;;;10052210;29;20235;-86
2023/09/19 05:59:25;;;;;;;15.57;2.92;;;;;14.20;100576.00;;;;10028798;29;20342;-86
2023/09/19 06:04:30;;;;;;;16.30;3.10;;;;;14.30;100582.00;;;;10019396;29;20303;-86
2023/09/19 06:09:33;;;;;;;9.23;2.63;;;;;14.50;100586.00;;;;10033764;29;20214;-85
2023/09/19 06:14:35;;;;;;;14.73;2.53;;;;;14.60;100581.00;;;;10030813;29;20244;-85
2023/09/19 06:19:38;;;;;;;8.50;2.40;;;;;14.70;100571.00;;;;10017989;29;20250;-84
2023/09/19 06:24:40;;;;;;;10.65;2.25;;;;;14.90;100590.00;;;;10030876;29;20282;-86
2023/09/19 06:29:42;;;;;;;12.27;3.22;;;;;15.10;100592.00;;;;10030501;29;20220;-79
2023/09/19 06:34:45;;;;;;;12.20;2.80;;;;;15.30;100599.00;;;;10013764;29;20240;-80
2023/09/19 06:39:49;;;;;;;10.32;2.70;;;;;15.40;100595.00;;;;10031291;29;20213;-79
2023/09/19 06:44:51;;;;;;;11.63;2.50;;;;;15.60;100602.00;;;;9989786;29;20208;-78
2023/09/19 06:49:53;;;;;;;12.80;2.45;;;;;15.80;100602.00;;;;10014650;29;20295;-79
2023/09/19 06:54:55;;;;;;;12.02;2.50;;;;;15.80;100614.00;;;;10013570;29;20281;-80
2023/09/19 06:59:58;;;;;;;11.25;2.53;;;;;15.90;100611.00;;;;10024124;29;20306;-79
2023/09/19 07:05:00;;;;;;;12.65;2.28;;;;;15.90;100625.00;;;;10034972;29;20217;-82
2023/09/19 07:10:05;;;;;;;15.85;3.55;;;;;16.00;100614.00;;;;9998063;29;20216;-82
2023/09/19 07:15:08;;;;;;;12.75;2.70;;;;;16.10;100606.00;;;;10024024;29;20229;-83
2023/09/19 07:20:10;;;;;;;13.63;2.63;;;;;16.30;100611.00;;;;10006997;29;20273;-84
2023/09/19 07:25:14;;;;;;;11.23;2.50;;;;;16.60;100599.00;;;;10022856;29;20270;-81
2023/09/19 07:30:16;;;;;;;13.45;2.35;;;;;16.90;100618.00;;;;9995530;29;20941;-83
2023/09/19 07:35:21;;;;;;;10.30;2.50;;;;;17.10;100607.00;;;;10017519;29;20759;-82
2023/09/19 07:40:28;;;;;;;13.70;2.90;;;;;17.20;100617.00;;;;9995621;29;20220;-87
2023/09/19 07:45:31;;;;;;;11.68;3.20;;;;;17.40;100608.00;;;;10031896;29;20213;-85
2023/09/19 07:50:37;;;;;;;11.38;2.22;;;;;17.40;100607.00;;;;10031633;29;20212;-88
2023/09/19 07:55:40;;;;;;;8.93;2.35;;;;;17.60;100597.00;;;;10011099;29;20243;-90
2023/09/19 08:00:43;;;;;;;15.68;3.05;;;;;17.80;100614.00;;;;10044440;29;20248;-89
2023/09/19 08:05:45;;;;;;;6.20;2.22;;;;;18.00;100604.00;;;;10019448;29;20209;-89
2023/09/19 08:10:56;;;;;;;12.13;2.75;;;;;18.10;100614.00;;;;9995151;29;20292;-86
2023/09/19 08:15:58;;;;;;;10.20;2.88;;;;;18.40;100617.00;;;;10021696;29;20253;-86
2023/09/19 08:21:01;;;;;;;9.95;2.40;;;;;18.90;100607.00;;;;10071444;29;20205;-84
2023/09/19 08:26:08;;;;;;;14.02;2.90;;;;;19.00;100617.00;;;;10061139;29;20213;-89
2023/09/19 08:31:10;;;;;;;11.52;2.75;;;;;19.10;100604.00;;;;10029230;29;20220;-89
2023/09/19 08:36:17;;;;;;;14.63;2.90;;;;;19.20;100607.00;;;;10020613;29;20255;-90
2023/09/19 08:41:19;;;;;;;9.52;2.47;;;;;19.40;100598.00;;;;10033690;29;20288;-88
2023/09/19 08:46:26;;;;;;;15.00;2.72;;;;;19.60;100604.00;;;;10043802;29;20251;-88
2023/09/19 08:51:35;;;;;;;12.80;3.40;;;;;20.20;100603.00;;;;10018708;29;20224;-80
2023/09/19 08:56:39;;;;;;;13.88;3.08;;;;;20.40;100607.00;;;;9994025;29;20285;-80
2023/09/19 09:01:42;;;;;;;12.82;2.67;;;;;20.80;100610.00;;;;10026085;29;20263;-80
2023/09/19 09:06:45;;;;;;;11.38;2.28;;;;;21.10;100593.00;;;;10033748;29;20219;-80
2023/09/19 09:11:51;;;;;;;11.02;2.72;;;;;21.30;100594.00;;;;10005264;29;20217;-82
2023/09/19 09:16:58;;;;;;;11.18;2.53;;;;;21.50;100600.00;;;;10010844;29;20233;-81
2023/09/19 09:22:11;;;;;;;7.80;2.00;;;;;21.50;100602.00;;;;10004018;29;20277;-81
2023/09/19 09:27:13;;;;;;;9.55;2.70;;;;;21.70;100596.00;;;;10025153;29;20205;-80
2023/09/19 09:32:29;;;;;;;10.68;2.85;;;;;21.50;100590.00;;;;10008362;29;20217;-82
2023/09/19 09:37:31;;;;;;;6.82;2.30;;;;;21.30;100582.00;;;;10044641;29;20852;-80
2023/09/19 09:42:38;;;;;;;11.57;2.65;;;;;21.20;100575.00;;;;10036379;29;20216;-81
2023/09/19 09:47:55;;;;;;;10.27;2.75;;;;;21.10;100578.00;;;;9999260;29;20948;-80
2023/09/19 09:53:06;;;;;;;5.72;1.80;;;;;20.80;100564.00;;;;10058059;29;20222;-81
2023/09/19 09:58:25;;;;;;;13.80;1.92;;;;;20.40;100586.00;;;;10011285;29;20596;-84
2023/09/19 10:03:33;;;;;;;14.85;2.55;;;;;20.20;100576.00;;;;10019241;29;20239;-84
2023/09/19 10:08:36;;;;;;;5.35;1.75;;;;;20.10;100580.00;;;;10009033;29;20699;-85
2023/09/19 10:13:42;;;;;;;7.03;2.10;;;;;20.20;100578.00;;;;10029552;29;20221;-87
2023/09/19 10:18:52;;;;;;;9.27;1.98;;;;;20.70;100573.00;;;;10009753;29;20224;-87
2023/09/19 10:23:56;;;;;;;6.30;2.00;;;;;21.60;100566.00;;;;10023543;29;20219;-87
2023/09/19 10:29:01;;;;;;;9.02;1.88;;;;;22.10;100560.00;;;;10041849;29;20224;-87
2023/09/19 10:34:04;;;;;;;6.03;1.80;;;;;22.60;100547.00;;;;10014981;29;20580;-88
2023/09/19 10:39:08;;;;;;;4.25;1.60;;;;;22.90;100552.00;;;;10029352;29;20228;-85
2023/09/19 10:44:11;;;;;;;5.78;1.67;;;;;23.40;100553.00;;;;10046002;29;20216;-87
2023/09/19 10:49:13;;;;;;;5.28;1.60;;;;;23.50;100557.00;;;;10039388;29;20200;-83
2023/09/19 10:54:19;;;;;;;5.53;1.75;;;;;23.70;100533.00;;;;10045514;24;20263;-87
2023/09/19 10:59:25;;;;;;;5.50;1.60;;;;;23.90;100550.00;;;;10002283;29;20233;-86
2023/09/19 11:04:38;;;;;;;6.22;1.63;;;;;23.60;100550.00;;;;9997243;29;20262;-83
2023/09/19 11:09:53;;;;;;;6.72;1.40;;;;;24.20;100548.00;;;;10014322;29;20206;-82
2023/09/19 11:14:56;;;;;;;7.50;1.42;;;;;24.80;100543.00;;;;9972507;29;20228;-82
2023/09/19 11:25:34;;;;;;;4.00;1.33;;;;;25.60;100542.00;;;;10025579;29;20209;-83
2023/09/19 11:30:38;;;;;;;6.75;1.48;;;;;25.40;100529.00;;;;9974523;29;20227;-82
2023/09/19 11:36:04;;;;;;;4.47;1.40;;;;;24.90;100519.00;;;;9989952;29;20320;-81
2023/09/19 11:41:26;;;;;;;7.38;1.30;;;;;24.10;100514.00;;;;9969801;29;20843;-82
2023/09/19 11:46:51;;;;;;;5.22;1.15;;;;;23.90;100515.00;;;;10004201;29;20213;-82
2023/09/19 11:51:54;;;;;;;3.50;1.13;;;;;23.40;100512.00;;;;10002097;29;20274;-82
2023/09/19 11:57:00;;;;;;;3.90;1.25;;;;;23.20;100515.00;;;;9980455;29;20240;-82
2023/09/19 12:02:06;;;;;;;3.35;1.00;;;;;23.10;100529.00;;;;10009071;29;20230;-82
2023/09/19 12:07:14;;;;;;;5.53;1.63;;;;;22.50;100536.00;;;;10007965;29;20672;-82
2023/09/19 12:12:22;;;;;;;4.35;1.40;;;;;22.70;100530.00;;;;9979740;29;21172;-82
2023/09/19 12:17:38;;;;;;;6.70;1.45;;;;;22.50;100534.00;;;;9985636;29;20778;-81
2023/09/19 12:22:46;;;;;;;4.13;1.52;;;;;22.70;100520.00;;;;10019292;29;20244;-83
2023/09/19 12:27:52;;;;;;;6.32;1.48;;;;;23.10;100516.00;;;;10001449;29;20697;-84
2023/09/19 12:32:58;;;;;;;7.20;1.45;;;;;23.50;100523.00;;;;9988661;29;20213;-83
2023/09/19 12:38:03;;;;;;;5.38;1.40;;;;;23.20;100524.00;;;;10004710;29;20236;-82
2023/09/19 12:43:07;;;;;;;5.38;1.20;;;;;23.00;100523.00;;;;10000664;29;20222;-83
2023/09/19 12:48:33;;;;;;;4.13;1.30;;;;;22.90;100506.00;;;;9966887;29;20216;-83
2023/09/19 12:53:42;;;;;;;5.00;1.40;;;;;23.00;100515.00;;;;9981146;29;20210;-83
2023/09/19 12:59:03;;;;;;;4.50;1.45;;;;;22.70;100508.00;;;;10004568;29;20650;-85
2023/09/19 13:04:19;;;;;;;4.78;1.48;;;;;22.90;100514.00;;;;9986278;29;20341;-85
2023/09/19 13:09:34;;;;;;;4.10;1.27;;;;;22.60;100519.00;;;;9987700;29;20213;-84
2023/09/19 13:14:40;;;;;;;2.60;1.23;;;;;23.00;100526.00;;;;9994222;29;20229;-84
2023/09/19 13:19:54;;;;;;;5.57;1.33;;;;;22.80;100521.00;;;;9958783;29;20222;-83
2023/09/19 13:24:58;;;;;;;6.80;1.63;;;;;22.60;100520.00;;;;9966048;29;20222;-83
2023/09/19 13:30:01;;;;;;;4.25;1.23;;;;;22.40;100523.00;;;;10017542;29;20626;-83
2023/09/19 13:35:05;;;;;;;4.20;1.17;;;;;22.00;100531.00;;;;9991782;29;20245;-83
2023/09/19 13:40:09;;;;;;;3.67;1.27;;;;;22.40;100515.00;;;;9997617;29;20205;-83
2023/09/19 13:45:12;;;;;;;5.78;1.35;;;;;22.40;100512.00;;;;9986935;29;20221;-83
2023/09/19 13:50:14;;;;;;;8.32;1.70;;;;;22.60;100498.00;;;;9966413;29;20260;-83
2023/09/19 13:55:20;;;;;;;5.95;1.55;;;;;22.70;100510.00;;;;9986404;29;20256;-83
2023/09/19 14:00:23;;;;;;;4.05;1.70;;;;;23.20;100504.00;;;;9987926;29;20283;-84
2023/09/19 14:05:27;;;;;;;2.53;1.13;;;;;23.40;100503.00;;;;10003235;29;20226;-83
2023/09/19 14:10:31;;;;;;;8.20;1.40;;;;;23.50;100502.00;;;;9972750;29;20210;-83
2023/09/19 14:15:38;;;;;;;4.88;1.50;;;;;22.70;100508.00;;;;9977408;29;20234;-84
2023/09/19 14:20:41;;;;;;;4.85;1.33;;;;;22.20;100492.00;;;;9982068;29;20787;-84
2023/09/19 14:25:43;;;;;;;6.60;1.35;;;;;22.40;100483.00;;;;9993535;29;20213;-83
2023/09/19 14:30:46;;;;;;;5.40;1.60;;;;;22.70;100479.00;;;;9973498;29;20221;-85
2023/09/19 14:35:48;;;;;;;7.35;1.90;;;;;22.40;100489.00;;;;9953924;29;20225;-84
2023/09/19 14:40:59;;;;;;;7.30;1.70;;;;;22.50;100493.00;;;;9978293;29;20976;-84
2023/09/19 14:46:07;;;;;;;5.20;1.70;;;;;22.70;100484.00;;;;10001162;29;20224;-86
2023/09/19 14:51:11;;;;;;;7.38;2.03;;;;;22.40;100507.00;;;;9984521;29;20233;-84
2023/09/19 14:56:18;;;;;;;8.38;1.63;;;;;22.30;100487.00;;;;9983682;29;20230;-85
2023/09/19 15:01:20;;;;;;;7.45;1.80;;;;;21.90;100489.00;;;;9999735;29;20305;-85
2023/09/19 15:06:22;;;;;;;4.30;1.70;;;;;21.20;100498.00;;;;9965119;29;20217;-85
2023/09/19 15:11:24;;;;;;;4.28;1.88;;;;;20.60;100491.00;;;;9983864;29;20233;-84
2023/09/19 15:16:27;;;;;;;5.47;1.50;;;;;20.40;100490.00;;;;9982674;29;20366;-85
2023/09/19 15:21:30;;;;;;;6.85;1.58;;;;;20.60;100506.00;;;;9988094;29;20213;-85
2023/09/19 15:26:32;;;;;;;5.65;1.80;;;;;20.90;100501.00;;;;10003815;29;21000;-86
2023/09/19 15:31:38;;;;;;;5.53;1.80;;;;;20.90;100495.00;;;;9978540;29;20581;-85
2023/09/19 15:36:41;;;;;;;4.93;1.80;;;;;20.90;100498.00;;;;9992244;29;20286;-86
2023/09/19 15:41:48;;;;;;;4.72;1.70;;;;;20.50;100493.00;;;;9998054;29;20274;-87
2023/09/19 15:46:51;;;;;;;4.88;1.60;;;;;20.10;100484.00;;;;9955502;29;20217;-85
2023/09/19 15:51:53;;;;;;;6.47;1.73;;;;;19.90;100500.00;;;;9995014;29;20213;-88
2023/09/19 15:56:55;;;;;;;5.65;1.95;;;;;20.00;100496.00;;;;10002892;29;20722;-88
2023/09/19 16:01:57;;;;;;;5.18;1.48;;;;;19.90;100499.00;;;;9990785;29;20896;-87
2023/09/19 16:07:01;;;;;;;2.58;1.50;;;;;19.80;100491.00;;;;9989478;29;20983;-87
2023/09/19 16:12:04;;;;;;;6.78;1.95;;;;;19.80;100502.00;;;;10020413;29;20217;-85
2023/09/19 16:17:10;;;;;;;8.20;1.45;;;;;19.70;100491.00;;;;10021229;29;20312;-85
2023/09/19 16:22:13;;;;;;;2.90;1.40;;;;;19.80;100503.00;;;;10001211;29;20213;-85
2023/09/19 16:27:20;;;;;;;7.88;1.67;;;;;19.80;100504.00;;;;9991479;29;20221;-85
2023/09/19 16:32:22;;;;;;;10.05;1.45;;;;;19.80;100494.00;;;;9990766;29;20210;-86
2023/09/19 16:37:25;;;;;;;6.32;1.40;;;;;19.60;100482.00;;;;9991565;29;20234;-85
2023/09/19 16:42:27;;;;;;;4.00;1.30;;;;;19.40;100497.00;;;;9992943;29;20592;-86
2023/09/19 16:47:33;;;;;;;4.15;1.38;;;;;19.20;100499.00;;;;9998360;29;20221;-86
2023/09/19 16:52:35;;;;;;;3.33;1.42;;;;;19.20;100500.00;;;;9985640;29;20233;-87
2023/09/19 16:57:38;;;;;;;8.27;1.80;;;;;19.10;100498.00;;;;9993946;29;20312;-87
2023/09/19 17:02:40;;;;;;;5.75;1.92;;;;;19.20;100496.00;;;;9999584;29;20313;-85
2023/09/19 17:07:42;;;;;;;6.22;2.25;;;;;19.20;100503.00;;;;10013949;29;20221;-85
2023/09/19 17:12:44;;;;;;;4.00;1.73;;;;;19.20;100499.00;;;;10000263;29;20209;-84
2023/09/19 17:17:46;;;;;;;8.05;1.60;;;;;19.10;100505.00;;;;9988157;29;20233;-86
2023/09/19 17:22:50;;;;;;;5.07;1.80;;;;;19.00;100511.00;;;;10010716;29;20855;-86
2023/09/19 17:27:52;;;;;;;5.13;1.70;;;;;18.80;100514.00;;;;9992714;29;20216;-86
2023/09/19 17:32:55;;;;;;;6.45;1.40;;;;;18.70;100503.00;;;;10013461;29;20209;-85
2023/09/19 17:37:57;;;;;;;5.40;1.60;;;;;18.60;100507.00;;;;10001012;29;20684;-86
2023/09/19 17:43:02;;;;;;;4.75;1.63;;;;;18.40;100507.00;;;;9976608;29;20222;-84
2023/09/19 17:48:06;;;;;;;8.13;1.90;;;;;18.40;100510.00;;;;9986980;29;20237;-85
2023/09/19 17:53:09;;;;;;;7.60;2.10;;;;;18.30;100518.00;;;;9992547;29;20206;-85
2023/09/19 17:58:12;;;;;;;10.15;1.80;;;;;18.30;100516.00;;;;9989573;29;20233;-86
2023/09/19 18:03:14;;;;;;;6.65;1.70;;;;;18.20;100510.00;;;;10004328;29;20219;-85
2023/09/19 18:08:16;;;;;;;6.47;2.13;;;;;18.10;100495.00;;;;10006551;29;20277;-78
2023/09/19 18:13:20;;;;;;;5.00;1.90;;;;;18.10;100489.00;;;;9987163;29;20241;-79
2023/09/19 18:18:25;;;;;;;6.22;2.00;;;;;18.00;100484.00;;;;10009274;29;20241;-80
2023/09/19 18:23:28;;;;;;;9.45;2.08;;;;;17.90;100489.00;;;;9988683;29;20839;-80
2023/09/19 18:28:30;;;;;;;4.40;1.90;;;;;17.90;100476.00;;;;10004390;29;20243;-80
2023/09/19 18:33:32;;;;;;;12.05;2.40;;;;;17.90;100481.00;;;;9963362;29;20222;-79
2023/09/19 18:38:43;;;;;;;4.93;1.70;;;;;17.90;100485.00;;;;9987495;29;20241;-79
2023/09/19 18:43:45;;;;;;;5.72;1.88;;;;;17.90;100494.00;;;;9977260;29;20309;-79
2023/09/19 18:48:52;;;;;;;6.07;1.98;;;;;17.90;100502.00;;;;9985719;29;20352;-79
2023/09/19 18:53:54;;;;;;;4.88;1.90;;;;;17.90;100503.00;;;;9970071;29;20218;-80
2023/09/19 18:59:14;;;;;;;4.65;2.17;;;;;17.90;100490.00;;;;9999573;29;20235;-79
2023/09/19 19:04:18;;;;;;;5.85;1.88;;;;;17.90;100490.00;;;;9985371;29;20214;-79
2023/09/19 19:09:20;;;;;;;5.00;1.70;;;;;17.80;100486.00;;;;10011523;29;20221;-80
2023/09/19 19:14:22;;;;;;;7.57;2.25;;;;;17.80;100490.00;;;;9987236;29;20256;-79
2023/09/19 19:19:27;;;;;;;8.00;1.70;;;;;17.80;100481.00;;;;9983489;29;20725;-85
2023/09/19 19:24:29;;;;;;;6.70;1.85;;;;;17.80;100491.00;;;;9983746;29;20214;-84
2023/09/19 19:29:31;;;;;;;5.05;1.83;;;;;17.90;100484.00;;;;9997036;29;20217;-86
2023/09/19 19:34:33;;;;;;;4.30;2.33;;;;;17.90;100489.00;;;;10003198;29;20729;-85
2023/09/19 19:39:35;;;;;;;5.43;1.80;;;;;18.00;100502.00;;;;10006136;29;20233;-85
2023/09/19 19:44:37;;;;;;;8.15;2.20;;;;;18.00;100487.00;;;;9981277;29;20217;-86
2023/09/19 19:49:39;;;;;;;5.60;1.73;;;;;18.00;100489.00;;;;9983704;29;20287;-83
2023/09/19 19:54:41;;;;;;;6.22;2.03;;;;;18.10;100498.00;;;;9984096;29;20863;-84
2023/09/19 19:59:43;;;;;;;5.53;1.83;;;;;18.10;100472.00;;;;9971892;29;20236;-83
2023/09/19 20:04:45;;;;;;;4.15;2.00;;;;;18.20;100495.00;;;;9996119;29;20229;-83
2023/09/19 20:09:47;;;;;;;5.90;2.13;;;;;18.20;100488.00;;;;9954920;29;20762;-84
2023/09/19 20:14:49;;;;;;;5.75;1.60;;;;;18.30;100493.00;;;;9994991;29;20596;-84
2023/09/19 20:19:52;;;;;;;6.50;1.85;;;;;18.30;100489.00;;;;9963382;29;20324;-83
2023/09/19 20:24:54;;;;;;;6.22;2.45;;;;;18.30;100495.00;;;;9990485;29;20312;-83
2023/09/19 20:29:56;;;;;;;4.97;2.00;;;;;18.30;100485.00;;;;10010414;29;20262;-86
2023/09/19 20:34:59;;;;;;;5.88;1.92;;;;;18.30;100480.00;;;;10018035;29;20300;-86
2023/09/19 20:45:42;;;;;;;8.13;2.10;;;;;18.30;100492.00;;;;10084662;23;20241;-85
2023/09/19 20:50:44;;;;;;;5.88;2.00;;;;;18.40;100484.00;;;;10062822;29;20553;-87
2023/09/19 20:55:46;;;;;;;7.32;2.30;;;;;18.40;100476.00;;;;10048866;29;20224;-87
2023/09/19 21:00:48;;;;;;;5.72;1.73;;;;;18.40;100480.00;;;;10073961;29;20281;-86
2023/09/19 21:06:13;;;;;;;5.22;2.25;;;;;18.40;100476.00;;;;10061102;29;20206;-84
2023/09/19 21:11:20;;;;;;;8.02;2.00;;;;;18.40;100465.00;;;;10053291;29;20213;-88
2023/09/19 21:16:22;;;;;;;6.07;2.05;;;;;18.40;100462.00;;;;10046390;29;20256;-85
2023/09/19 21:21:24;;;;;;;6.55;2.53;;;;;18.50;100462.00;;;;10028754;29;20291;-85
2023/09/19 21:26:27;;;;;;;5.93;1.88;;;;;18.50;100452.00;;;;10047625;29;20216;-86
2023/09/19 21:31:29;;;;;;;4.68;2.20;;;;;18.60;100450.00;;;;10044379;29;20293;-85
2023/09/19 21:36:33;;;;;;;4.60;2.00;;;;;18.50;100455.00;;;;10027677;29;20225;-87
2023/09/19 21:41:36;;;;;;;7.43;2.42;;;;;18.60;100449.00;;;;10034393;29;20240;-79
2023/09/19 21:46:39;;;;;;;5.32;1.90;;;;;18.60;100448.00;;;;10007182;29;20217;-80
2023/09/19 21:51:41;;;;;;;5.35;2.25;;;;;18.50;100453.00;;;;10003223;29;20255;-79
2023/09/19 21:56:45;;;;;;;4.35;2.10;;;;;18.40;100450.00;;;;10000154;29;20964;-78
2023/09/19 22:01:47;;;;;;;4.53;2.05;;;;;18.40;100456.00;;;;9980911;29;20730;-80
2023/09/19 22:06:49;;;;;;;6.00;2.25;;;;;18.30;100462.00;;;;9962112;29;20214;-81
2023/09/19 22:11:53;;;;;;;8.30;2.38;;;;;18.20;100455.00;;;;9976128;29;20221;-82
2023/09/19 22:16:59;;;;;;;9.07;2.92;;;;;18.20;100447.00;;;;9945893;29;20229;-78
2023/09/19 22:22:02;;;;;;;10.05;2.40;;;;;18.20;100464.00;;;;9995321;29;20227;-80
2023/09/19 22:27:05;;;;;;;8.75;2.50;;;;;18.20;100462.00;;;;9967898;29;20209;-79
2023/09/19 22:32:11;;;;;;;8.35;2.45;;;;;18.10;100464.00;;;;9959249;29;20221;-81
2023/09/19 22:37:13;;;;;;;9.25;2.50;;;;;18.10;100458.00;;;;9999171;29;20271;-79
2023/09/19 22:42:16;;;;;;;6.30;2.00;;;;;18.10;100461.00;;;;9969271;29;20222;-79
2023/09/19 22:47:18;;;;;;;4.97;1.73;;;;;18.10;100456.00;;;;9988660;29;20214;-80
2023/09/19 22:52:21;;;;;;;5.93;2.10;;;;;18.10;100459.00;;;;9986066;29;20225;-86
2023/09/19 22:57:23;;;;;;;6.50;2.08;;;;;18.10;100449.00;;;;10035559;29;20286;-87
2023/09/19 23:02:28;;;;;;;7.97;2.50;;;;;18.10;100438.00;;;;9981202;29;20210;-86
2023/09/19 23:07:31;;;;;;;5.05;1.90;;;;;18.10;100444.00;;;;9987253;29;20728;-86
2023/09/19 23:12:33;;;;;;;5.72;2.55;;;;;18.10;100445.00;;;;10000798;29;20284;-86
2023/09/19 23:17:36;;;;;;;8.88;2.63;;;;;18.10;100443.00;;;;10004397;29;20252;-86
2023/09/19 23:22:40;;;;;;;4.75;2.08;;;;;18.10;100446.00;;;;10006923;29;20209;-86
2023/09/19 23:27:47;;;;;;;5.45;2.00;;;;;18.10;100446.00;;;;10009015;29;20583;-86
2023/09/19 23:32:49;;;;;;;3.42;1.88;;;;;18.20;100447.00;;;;9992680;29;20230;-85
2023/09/19 23:37:51;;;;;;;10.57;2.58;;;;;18.20;100446.00;;;;10027554;29;20241;-86
2023/09/19 23:42:55;;;;;;;6.15;2.08;;;;;18.10;100453.00;;;;10011616;29;20206;-83
2023/09/19 23:47:57;;;;;;;7.30;2.85;;;;;18.00;100458.00;;;;10024409;29;20292;-86
2023/09/19 23:53:06;;;;;;;8.45;2.30;;;;;17.90;100457.00;;;;9972958;29;20210;-87
2023/09/19 23:58:09;;;;;;;8.60;2.78;;;;;18.00;100462.00;;;;9995893;29;20234;-84
